Mississippi Star — 9HA2441 — position and weather

sailwx.info

Track history (hours):
 
Tides and Currents Weather Stations Pressure Air Temp Water Temp Dewpoint Dewpoint Depression Visibility Wind Speed Wind Dir Waves Ship Positions

Mississippi Star

Last reported at 2016-Sep-28 12:31 UTC. Time now 2016-Sep-28 13:41 UTC.
Position N 51°53' E 004°19'.

Length 128 m; draft 6 m.

Type: Ship. MMSI: 248621000.

Date/timePositionNaut miles runAvg speedWind from/ knotsBaromVisibWave heightAir tempDewpointWater temp
2016-Sep-28 12:31N 51°53' E 004°19'0 0.0
2016-Sep-28 08:25N 51°53' E 004°19'0 0.0
2016-Sep-28 03:31N 51°53' E 004°19'0 0.0
2016-Sep-28 02:31N 51°53' E 004°19'0 0.0
2016-Sep-28 01:31N 51°53' E 004°19'0 0.0
2016-Sep-27 23:31N 51°53' E 004°19'15 3.7
2016-Sep-27 19:34N 51°60' E 003°58'18 3.6
2016-Sep-27 14:28N 51°53' E 003°30'0 0.0
2016-Sep-27 13:22N 51°53' E 003°30'0 0.0
2016-Sep-27 10:31N 51°53' E 003°30'0 0.0
2016-Sep-27 00:31N 51°53' E 003°30'0 0.0
2016-Sep-25 07:31N 51°53' E 003°30'0 0.0
2016-Sep-25 04:28N 51°53' E 003°30'0 0.0
2016-Sep-25 00:33N 51°53' E 003°30'0 0.0
2016-Sep-24 22:33N 51°53' E 003°30'0 0.0
2016-Sep-24 21:34N 51°53' E 003°30'0 0.0
2016-Sep-24 19:30N 51°53' E 003°30'3 3.0
2016-Sep-24 18:33N 51°54' E 003°26'1010.1
2016-Sep-24 17:34N 51°53' E 003°10'1010.3
2016-Sep-24 16:33N 51°50' E 002°54'18 9.1
2016-Sep-24 14:34N 51°40' E 002°29'18 9.2
2016-Sep-24 12:34N 51°26' E 002°10'19 9.3
2016-Sep-24 10:33N 51°11' E 001°54'1010.3
2016-Sep-24 09:33N 51°04' E 001°41'6310.6
2016-Sep-24 03:33N 50°23' E 000°25'1111.2
2016-Sep-24 02:33N 50°21' E 000°08'1211.6
2016-Sep-24 01:33N 50°17' W 000°09'1211.8
2016-Sep-24 00:32N 50°14' W 000°27'63 8.9
2016-Sep-23 17:27N 49°58' W 002°03'38 9.6
2016-Sep-23 13:31N 49°53' W 003°01'4611.6
2016-Sep-23 09:33N 50°14' W 004°04'6 0.2
2016-Sep-22 04:29N 50°18' W 004°09'0 0.0
2016-Sep-22 03:23N 50°18' W 004°09'0 0.0
2016-Sep-22 00:32N 50°18' W 004°09'0 0.0
2016-Sep-21 23:32N 50°18' W 004°09'0 0.0
2016-Sep-21 22:32N 50°18' W 004°09'0 0.0
2016-Sep-21 19:32N 50°18' W 004°09'0 0.0
2016-Sep-21 16:11N 50°18' W 004°09'0 0.0
2016-Sep-21 09:31N 50°18' W 004°09'1 0.8
2016-Sep-21 08:34N 50°18' W 004°10'3210.7
2016-Sep-21 05:33N 50°00' W 003°28'2713.3
2016-Sep-21 03:33N 50°02' W 002°46'11011.0
2016-Sep-20 17:33N 50°32' E 000°00'4811.6
2016-Sep-20 13:28N 50°53' E 001°07'3612.3
2016-Sep-20 10:33N 51°18' E 001°49'2914.4
2016-Sep-20 08:33N 51°41' E 002°16'9810.8
2016-Sep-19 23:33N 52°28' E 004°35'7 0.2
2016-Sep-18 19:34N 52°28' E 004°24'15 3.8
2016-Sep-18 15:33N 52°26' E 003°60'0 0.1
2016-Sep-18 14:33N 52°26' E 003°60'  
Track history (hours):
 
Tides and Currents Weather Stations Pressure Air Temp Water Temp Dewpoint Dewpoint Depression Visibility Wind Speed Wind Dir Waves Ship Positions

Mississippi Star

Last reported at 2016-Sep-28 12:31 UTC. Time now 2016-Sep-28 13:41 UTC.
Position N 51°53' E 004°19'.

Length 128 m; draft 6 m.

Type: Ship. MMSI: 248621000.

Date/timePositionNaut miles runAvg speedWind from/ knotsBaromVisibWave heightAir tempDewpointWater temp
2016-Sep-28 12:31N 51°53' E 004°19'0 0.0
2016-Sep-28 08:25N 51°53' E 004°19'0 0.0
2016-Sep-28 03:31N 51°53' E 004°19'0 0.0
2016-Sep-28 02:31N 51°53' E 004°19'0 0.0
2016-Sep-28 01:31N 51°53' E 004°19'0 0.0
2016-Sep-27 23:31N 51°53' E 004°19'15 3.7
2016-Sep-27 19:34N 51°60' E 003°58'18 3.6
2016-Sep-27 14:28N 51°53' E 003°30'0 0.0
2016-Sep-27 13:22N 51°53' E 003°30'0 0.0
2016-Sep-27 10:31N 51°53' E 003°30'0 0.0
2016-Sep-27 00:31N 51°53' E 003°30'0 0.0
2016-Sep-25 07:31N 51°53' E 003°30'0 0.0
2016-Sep-25 04:28N 51°53' E 003°30'0 0.0
2016-Sep-25 00:33N 51°53' E 003°30'0 0.0
2016-Sep-24 22:33N 51°53' E 003°30'0 0.0
2016-Sep-24 21:34N 51°53' E 003°30'0 0.0
2016-Sep-24 19:30N 51°53' E 003°30'3 3.0
2016-Sep-24 18:33N 51°54' E 003°26'1010.1
2016-Sep-24 17:34N 51°53' E 003°10'1010.3
2016-Sep-24 16:33N 51°50' E 002°54'18 9.1
2016-Sep-24 14:34N 51°40' E 002°29'18 9.2
2016-Sep-24 12:34N 51°26' E 002°10'19 9.3
2016-Sep-24 10:33N 51°11' E 001°54'1010.3
2016-Sep-24 09:33N 51°04' E 001°41'6310.6
2016-Sep-24 03:33N 50°23' E 000°25'1111.2
2016-Sep-24 02:33N 50°21' E 000°08'1211.6
2016-Sep-24 01:33N 50°17' W 000°09'1211.8
2016-Sep-24 00:32N 50°14' W 000°27'63 8.9
2016-Sep-23 17:27N 49°58' W 002°03'38 9.6
2016-Sep-23 13:31N 49°53' W 003°01'4611.6
2016-Sep-23 09:33N 50°14' W 004°04'6 0.2
2016-Sep-22 04:29N 50°18' W 004°09'0 0.0
2016-Sep-22 03:23N 50°18' W 004°09'0 0.0
2016-Sep-22 00:32N 50°18' W 004°09'0 0.0
2016-Sep-21 23:32N 50°18' W 004°09'0 0.0
2016-Sep-21 22:32N 50°18' W 004°09'0 0.0
2016-Sep-21 19:32N 50°18' W 004°09'0 0.0
2016-Sep-21 16:11N 50°18' W 004°09'0 0.0
2016-Sep-21 09:31N 50°18' W 004°09'1 0.8
2016-Sep-21 08:34N 50°18' W 004°10'3210.7
2016-Sep-21 05:33N 50°00' W 003°28'2713.3
2016-Sep-21 03:33N 50°02' W 002°46'11011.0
2016-Sep-20 17:33N 50°32' E 000°00'4811.6
2016-Sep-20 13:28N 50°53' E 001°07'3612.3
2016-Sep-20 10:33N 51°18' E 001°49'2914.4
2016-Sep-20 08:33N 51°41' E 002°16'9810.8
2016-Sep-19 23:33N 52°28' E 004°35'7 0.2
2016-Sep-18 19:34N 52°28' E 004°24'15 3.8
2016-Sep-18 15:33N 52°26' E 003°60'0 0.1
2016-Sep-18 14:33N 52°26' E 003°60'  

Dump ship's entire track history